Time;durP1;ratioP1;P1;durP2;ratioP2;P2;SDS_P1;SDS_P2;PMS_P1;PMS_P2;Temp;Humidity;BMP_temperature;BMP_pressure;BME280_temperature;BME280_humidity;BME280_pressure;Samples;Min_cycle;Max_cycle;Signal;HPM_P1;HPM_P2
2021/04/27 00:01:45;;;;;;;1.20;0.68;;;15.90;49.60;;;;;;4974300;28;20082;-57
2021/04/27 00:04:11;;;;;;;0.95;0.55;;;15.90;49.60;;;;;;4974182;28;20047;-57
2021/04/27 00:06:36;;;;;;;0.85;0.50;;;15.90;49.60;;;;;;4956829;28;20082;-56
2021/04/27 00:09:05;;;;;;;0.60;0.50;;;15.80;49.60;;;;;;4974290;28;20410;-57
2021/04/27 00:11:31;;;;;;;1.85;0.60;;;15.80;49.60;;;;;;4974180;28;20033;-56
2021/04/27 00:13:56;;;;;;;1.42;0.65;;;15.80;49.60;;;;;;4974264;28;20030;-56
2021/04/27 00:16:22;;;;;;;1.48;0.50;;;15.90;49.70;;;;;;4974230;28;20367;-57
2021/04/27 00:18:48;;;;;;;2.85;0.60;;;15.80;49.70;;;;;;4974187;28;20019;-56
2021/04/27 00:21:14;;;;;;;1.02;0.60;;;15.80;49.70;;;;;;4974128;28;20030;-57
2021/04/27 00:23:39;;;;;;;1.38;0.60;;;15.80;49.70;;;;;;4974071;28;20030;-57
2021/04/27 00:26:05;;;;;;;1.98;0.65;;;15.80;49.70;;;;;;4973959;28;20262;-57
2021/04/27 00:28:31;;;;;;;1.95;0.90;;;15.80;49.80;;;;;;4974227;28;20023;-57
2021/04/27 00:30:56;;;;;;;2.25;0.68;;;15.80;71.90;;;;;;4973979;28;20031;-56
2021/04/27 00:33:22;;;;;;;0.73;0.40;;;15.70;49.70;;;;;;4973943;28;20038;-57
2021/04/27 00:35:48;;;;;;;1.65;0.82;;;15.80;49.70;;;;;;4973857;28;20081;-56
2021/04/27 00:38:13;;;;;;;1.33;0.52;;;15.80;49.80;;;;;;4974149;28;20478;-55
2021/04/27 00:40:39;;;;;;;1.15;0.68;;;15.80;71.90;;;;;;4973900;28;20027;-56
2021/04/27 00:43:05;;;;;;;0.47;0.40;;;16.20;50.00;;;;;;4974086;28;20027;-55
2021/04/27 00:45:30;;;;;;;1.13;0.50;;;15.60;72.40;;;;;;4973730;28;20647;-57
2021/04/27 00:47:57;;;;;;;1.55;0.50;;;15.70;49.80;;;;;;4973793;28;20026;-57
2021/04/27 00:50:30;;;;;;;1.35;0.70;;;15.70;49.80;;;;;;4973561;28;20026;-57
2021/04/27 00:52:58;;;;;;;1.75;0.63;;;15.70;49.70;;;;;;4957354;28;20074;-57
2021/04/27 00:55:24;;;;;;;1.38;0.52;;;15.40;71.90;;;;;;4973757;28;20027;-56
2021/04/27 00:57:50;;;;;;;3.10;0.65;;;15.70;49.80;;;;;;4973781;28;20166;-56
2021/04/27 01:00:20;;;;;;;1.38;0.68;;;15.70;49.80;;;;;;4956326;28;20482;-56
2021/04/27 01:02:46;;;;;;;1.38;0.50;;;15.70;72.10;;;;;;4973688;28;20545;-57
2021/04/27 01:05:15;;;;;;;1.52;0.68;;;15.70;72.10;;;;;;4973382;28;20421;-56
2021/04/27 01:07:51;;;;;;;1.90;0.60;;;15.70;49.90;;;;;;4973520;28;20034;-57
2021/04/27 01:10:24;;;;;;;1.15;0.47;;;15.60;49.80;;;;;;4975480;28;20034;-57
2021/04/27 01:13:16;;;;;;;1.50;0.85;;;15.70;72.80;;;;;;4977502;28;20456;-56
2021/04/27 01:15:44;;;;;;;1.00;0.50;;;15.70;72.20;;;;;;4960003;28;20062;-57
2021/04/27 01:18:10;;;;;;;2.28;0.52;;;15.60;49.90;;;;;;4977283;28;20110;-56
2021/04/27 01:20:45;;;;;;;0.88;0.40;;;15.60;50.00;;;;;;4977379;28;20030;-57
2021/04/27 01:23:11;;;;;;;1.10;0.52;;;15.60;50.00;;;;;;4977228;28;20030;-57
2021/04/27 01:25:38;;;;;;;1.10;0.47;;;15.90;50.90;;;;;;4977175;28;20043;-57
2021/04/27 01:28:08;;;;;;;1.35;0.80;;;15.60;50.00;;;;;;4977121;28;20101;-57
2021/04/27 01:30:39;;;;;;;1.52;0.43;;;15.60;50.00;;;;;;4977226;28;20029;-56
2021/04/27 01:33:28;;;;;;;1.38;0.60;;;15.60;50.00;;;;;;4977143;28;20023;-57
2021/04/27 01:35:58;;;;;;;0.55;0.45;;;15.60;50.00;;;;;;4976634;28;20064;-57
2021/04/27 01:38:24;;;;;;;0.70;0.52;;;15.50;50.00;;;;;;4976993;28;20034;-57
2021/04/27 01:40:52;;;;;;;1.58;0.68;;;15.50;50.00;;;;;;4976796;28;20386;-57
2021/04/27 01:43:18;;;;;;;0.85;0.55;;;15.60;50.10;;;;;;4959570;28;20134;-57
2021/04/27 01:45:51;;;;;;;0.57;0.47;;;15.60;50.20;;;;;;4976857;28;20054;-56
2021/04/27 01:48:17;;;;;;;0.77;0.50;;;15.50;50.10;;;;;;4976883;28;20026;-57
2021/04/27 01:50:44;;;;;;;1.00;0.70;;;15.50;50.10;;;;;;4959414;28;20478;-55
2021/04/27 01:53:13;;;;;;;1.23;0.60;;;15.50;50.10;;;;;;4976796;28;20133;-57
2021/04/27 01:55:39;;;;;;;2.05;0.70;;;15.40;50.00;;;;;;4959315;28;20389;-57
2021/04/27 01:58:05;;;;;;;1.38;0.70;;;15.50;50.10;;;;;;4976682;28;20109;-57
2021/04/27 02:00:31;;;;;;;1.10;0.50;;;15.50;50.10;;;;;;4976817;28;20027;-56
2021/04/27 02:02:57;;;;;;;1.30;0.80;;;15.50;50.10;;;;;;4976570;28;20030;-57
2021/04/27 02:05:22;;;;;;;1.55;0.80;;;15.50;50.00;;;;;;4958999;28;20043;-56
2021/04/27 02:07:48;;;;;;;1.50;0.50;;;15.50;50.00;;;;;;4976538;28;20110;-57
2021/04/27 02:10:15;;;;;;;1.30;0.77;;;15.50;72.80;;;;;;4976409;28;20031;-57
2021/04/27 02:12:46;;;;;;;1.98;0.50;;;15.40;50.10;;;;;;4976374;28;20038;-57
2021/04/27 02:15:14;;;;;;;1.05;0.50;;;15.50;50.10;;;;;;4959039;28;20500;-57
2021/04/27 02:18:01;;;;;;;1.25;0.60;;;15.40;50.10;;;;;;4958982;28;20470;-56
2021/04/27 02:20:28;;;;;;;0.80;0.55;;;15.40;50.10;;;;;;4976180;28;20027;-56
2021/04/27 02:22:56;;;;;;;1.02;0.60;;;15.40;50.10;;;;;;4958955;28;20033;-57
2021/04/27 02:25:23;;;;;;;0.98;0.50;;;15.40;50.10;;;;;;4976134;28;20042;-57
2021/04/27 02:27:50;;;;;;;1.33;0.60;;;15.40;50.10;;;;;;4976206;28;20042;-57
2021/04/27 02:30:19;;;;;;;0.63;0.50;;;15.40;50.20;;;;;;4976187;28;20019;-57
2021/04/27 02:32:46;;;;;;;1.58;0.60;;;15.40;50.10;;;;;;4976353;28;20027;-56
2021/04/27 02:35:14;;;;;;;0.50;0.50;;;15.50;73.50;;;;;;4976380;28;20023;-55
2021/04/27 02:37:41;;;;;;;2.10;0.60;;;15.30;73.40;;;;;;4976053;28;20031;-57
2021/04/27 02:40:08;;;;;;;3.83;0.93;;;15.30;50.10;;;;;;4975890;28;20023;-56
2021/04/27 02:42:37;;;;;;;0.60;0.52;;;15.10;73.20;;;;;;4976057;28;20034;-58
2021/04/27 02:45:07;;;;;;;0.98;0.50;;;15.30;50.20;;;;;;4958515;28;20035;-58
2021/04/27 02:47:34;;;;;;;0.75;0.60;;;15.30;73.10;;;;;;4976023;28;20109;-57
2021/04/27 02:50:00;;;;;;;0.60;0.50;;;15.50;73.70;;;;;;4975838;28;20099;-57
2021/04/27 02:52:25;;;;;;;1.10;0.73;;;15.30;50.20;;;;;;4975730;28;20441;-57
2021/04/27 02:54:51;;;;;;;0.77;0.50;;;15.30;50.20;;;;;;4975833;28;20023;-57
2021/04/27 02:57:16;;;;;;;1.75;0.68;;;15.30;50.80;;;;;;4975669;28;20034;-56
2021/04/27 02:59:42;;;;;;;0.75;0.52;;;15.30;50.20;;;;;;4975509;28;20031;-57
2021/04/27 03:02:08;;;;;;;1.05;0.63;;;15.00;50.10;;;;;;4975457;28;20037;-56
2021/04/27 03:04:33;;;;;;;1.65;0.60;;;15.30;50.20;;;;;;4975549;28;20051;-57
2021/04/27 03:06:59;;;;;;;0.98;0.77;;;15.30;50.20;;;;;;4975401;28;20058;-57
2021/04/27 03:09:25;;;;;;;1.13;0.50;;;15.20;50.20;;;;;;4975547;28;20029;-56
2021/04/27 03:11:50;;;;;;;0.65;0.45;;;15.20;72.80;;;;;;4975241;28;20031;-57
2021/04/27 03:14:16;;;;;;;1.38;0.40;;;15.20;72.90;;;;;;4975648;28;20019;-57
2021/04/27 03:16:42;;;;;;;1.80;0.70;;;15.10;50.20;;;;;;4975108;28;20031;-56
2021/04/27 03:19:07;;;;;;;1.05;0.60;;;15.20;72.70;;;;;;4975254;28;20021;-56
2021/04/27 03:21:33;;;;;;;0.50;0.50;;;15.20;50.20;;;;;;4975298;28;20117;-56
2021/04/27 03:23:59;;;;;;;1.00;0.60;;;15.20;50.20;;;;;;4975138;28;20031;-55
2021/04/27 03:26:24;;;;;;;1.27;0.43;;;15.00;50.10;;;;;;4974860;28;20050;-56
2021/04/27 03:28:50;;;;;;;1.08;0.65;;;14.90;73.10;;;;;;4975062;28;20493;-57
2021/04/27 03:31:16;;;;;;;1.75;0.57;;;15.10;74.10;;;;;;4957631;28;20034;-57
2021/04/27 03:33:42;;;;;;;1.38;0.70;;;15.20;50.30;;;;;;4956964;28;20015;-57
2021/04/27 03:36:07;;;;;;;1.05;0.70;;;15.20;73.30;;;;;;4974819;28;20038;-57
2021/04/27 03:38:33;;;;;;;0.30;0.30;;;15.20;50.40;;;;;;4975061;28;20029;-56
2021/04/27 03:40:59;;;;;;;1.17;0.60;;;15.40;50.50;;;;;;4974682;28;20033;-57
2021/04/27 03:43:25;;;;;;;2.13;0.80;;;14.80;50.20;;;;;;4974646;28;20106;-58
2021/04/27 03:45:50;;;;;;;0.82;0.55;;;15.20;50.30;;;;;;4957396;28;20046;-58
2021/04/27 03:48:20;;;;;;;0.63;0.63;;;15.00;73.10;;;;;;4957333;28;20451;-56
2021/04/27 03:50:46;;;;;;;1.00;0.60;;;15.10;50.10;;;;;;4974598;28;20118;-56
2021/04/27 03:53:12;;;;;;;0.50;0.50;;;15.10;50.30;;;;;;4974587;28;20070;-57
2021/04/27 03:55:38;;;;;;;0.93;0.60;;;15.10;50.30;;;;;;4974671;28;20098;-57
2021/04/27 03:58:05;;;;;;;0.82;0.60;;;15.20;73.20;;;;;;4974549;28;20542;-56
2021/04/27 04:00:31;;;;;;;1.10;0.60;;;15.10;73.10;;;;;;4974534;28;20019;-55
2021/04/27 04:02:56;;;;;;;2.58;0.65;;;15.10;50.30;;;;;;4974457;28;20482;-57
2021/04/27 04:05:22;;;;;;;1.73;0.77;;;15.10;50.30;;;;;;4956838;28;20054;-55
2021/04/27 04:07:49;;;;;;;1.92;0.60;;;15.10;50.30;;;;;;4974424;28;20537;-57
2021/04/27 04:10:15;;;;;;;1.20;0.70;;;15.30;73.40;;;;;;4974318;28;20033;-57
2021/04/27 04:12:43;;;;;;;2.05;0.80;;;15.20;73.90;;;;;;4956824;28;20533;-57
2021/04/27 04:15:12;;;;;;;0.50;0.50;;;15.00;50.20;;;;;;4974514;28;20058;-56
2021/04/27 04:17:39;;;;;;;1.07;0.60;;;15.10;72.80;;;;;;4974480;28;20430;-58
2021/04/27 04:20:10;;;;;;;2.88;0.80;;;15.00;50.20;;;;;;4974117;28;20489;-56
2021/04/27 04:22:37;;;;;;;0.90;0.60;;;15.00;50.20;;;;;;4974110;28;20011;-57
2021/04/27 04:25:05;;;;;;;1.38;0.70;;;15.20;73.10;;;;;;4973983;28;20438;-56
2021/04/27 04:27:31;;;;;;;0.70;0.70;;;14.90;73.00;;;;;;4974063;28;20031;-56
2021/04/27 04:29:57;;;;;;;1.30;0.70;;;15.00;50.30;;;;;;4973994;28;20029;-57
2021/04/27 04:32:22;;;;;;;1.00;0.60;;;15.00;50.20;;;;;;4973905;28;20038;-57
2021/04/27 04:34:48;;;;;;;1.05;0.60;;;15.00;73.00;;;;;;4973939;28;20026;-56
2021/04/27 04:37:13;;;;;;;2.25;0.70;;;15.00;50.20;;;;;;4973901;28;20041;-57
2021/04/27 04:39:39;;;;;;;0.73;0.50;;;15.50;50.50;;;;;;4956542;28;20025;-56
2021/04/27 04:42:05;;;;;;;1.33;0.60;;;14.90;50.10;;;;;;4974109;28;20038;-57
2021/04/27 04:44:31;;;;;;;1.80;0.55;;;14.90;73.00;;;;;;4973737;28;20074;-56
2021/04/27 04:46:57;;;;;;;0.63;0.50;;;14.70;50.00;;;;;;4974010;28;20422;-57
2021/04/27 04:49:24;;;;;;;0.95;0.63;;;15.20;72.90;;;;;;4973848;28;20026;-57
2021/04/27 04:51:51;;;;;;;0.85;0.50;;;15.00;73.40;;;;;;4973997;28;20046;-56
2021/04/27 04:54:18;;;;;;;1.17;0.70;;;15.00;73.30;;;;;;4974071;28;20027;-57
2021/04/27 04:56:44;;;;;;;0.80;0.38;;;14.90;73.50;;;;;;4973726;28;20030;-57
2021/04/27 04:59:09;;;;;;;2.35;0.73;;;14.90;50.20;;;;;;4973799;28;20023;-57
2021/04/27 05:01:35;;;;;;;0.70;0.60;;;14.90;50.20;;;;;;4973672;28;20030;-56
2021/04/27 05:04:01;;;;;;;1.10;0.55;;;14.80;73.60;;;;;;4956001;28;20047;-56
2021/04/27 05:06:27;;;;;;;1.25;0.70;;;14.90;50.20;;;;;;4973587;28;20043;-57
2021/04/27 05:08:55;;;;;;;1.13;0.70;;;14.90;73.70;;;;;;4973630;28;20029;-57
2021/04/27 05:11:20;;;;;;;1.00;0.73;;;14.80;74.70;;;;;;4973634;28;20026;-56
2021/04/27 05:13:46;;;;;;;0.93;0.68;;;14.90;50.20;;;;;;4973538;28;20029;-54
2021/04/27 05:16:12;;;;;;;0.60;0.60;;;14.90;50.20;;;;;;4973613;28;20030;-56
2021/04/27 05:18:39;;;;;;;1.38;0.70;;;14.70;73.20;;;;;;4973574;28;20026;-56
2021/04/27 05:21:06;;;;;;;1.23;0.60;;;14.80;50.10;;;;;;4973518;28;20011;-57
2021/04/27 05:23:31;;;;;;;2.15;0.73;;;14.90;50.10;;;;;;4973761;28;20367;-53
2021/04/27 05:25:57;;;;;;;2.78;0.80;;;14.90;50.10;;;;;;4973429;28;20045;-57
2021/04/27 05:28:23;;;;;;;1.15;0.95;;;14.80;50.00;;;;;;4973522;28;20023;-57
2021/04/27 05:30:49;;;;;;;0.90;0.70;;;14.80;73.10;;;;;;4973455;28;20485;-56
2021/04/27 05:33:15;;;;;;;0.75;0.50;;;14.90;50.10;;;;;;4973408;28;20401;-56
2021/04/27 05:35:41;;;;;;;1.77;0.70;;;14.90;50.10;;;;;;4973407;28;20031;-57
2021/04/27 05:38:08;;;;;;;1.58;0.70;;;14.90;50.10;;;;;;4973293;28;20463;-56
2021/04/27 05:40:34;;;;;;;1.73;0.73;;;14.80;50.00;;;;;;4973608;28;20037;-55
2021/04/27 05:43:00;;;;;;;2.22;0.80;;;14.90;72.70;;;;;;4973334;28;20023;-57
2021/04/27 05:45:26;;;;;;;0.95;0.60;;;14.80;72.80;;;;;;4973266;28;20043;-56
2021/04/27 05:47:55;;;;;;;1.10;0.57;;;14.70;49.90;;;;;;4973532;28;20031;-57
2021/04/27 05:50:20;;;;;;;2.58;0.80;;;14.80;49.90;;;;;;4973233;28;20050;-56
2021/04/27 05:52:46;;;;;;;1.15;0.63;;;15.00;50.10;;;;;;4973082;28;20026;-55
2021/04/27 05:55:12;;;;;;;0.88;0.55;;;14.80;49.90;;;;;;4973247;28;20026;-57
2021/04/27 05:57:38;;;;;;;2.03;0.93;;;14.80;49.90;;;;;;4976669;28;20154;-55
2021/04/27 06:00:06;;;;;;;0.98;0.73;;;14.80;49.90;;;;;;4976917;28;20026;-56
2021/04/27 06:02:31;;;;;;;2.50;0.65;;;14.80;49.90;;;;;;4976556;28;20026;-57
2021/04/27 06:04:57;;;;;;;1.77;0.70;;;14.90;73.50;;;;;;4976279;28;20055;-55
2021/04/27 06:07:24;;;;;;;1.00;0.60;;;14.90;50.10;;;;;;4976710;28;20105;-54
2021/04/27 06:09:50;;;;;;;4.63;0.60;;;14.90;50.10;;;;;;4976426;28;20031;-56
2021/04/27 06:12:15;;;;;;;1.50;0.60;;;14.90;50.30;;;;;;4976019;28;20090;-56
2021/04/27 06:14:41;;;;;;;3.50;0.77;;;14.90;73.30;;;;;;4958949;28;20026;-55
2021/04/27 06:17:07;;;;;;;2.33;0.80;;;14.90;50.20;;;;;;4976426;28;20027;-55
2021/04/27 06:19:34;;;;;;;2.92;0.60;;;14.90;50.10;;;;;;4958846;28;20026;-56
2021/04/27 06:22:00;;;;;;;1.30;0.70;;;14.90;50.20;;;;;;4975997;28;20458;-54
2021/04/27 06:24:25;;;;;;;4.25;0.77;;;15.00;50.10;;;;;;4976347;28;20106;-56
2021/04/27 06:26:51;;;;;;;1.85;0.82;;;14.90;50.10;;;;;;4975745;28;20525;-56
2021/04/27 06:29:17;;;;;;;1.23;0.75;;;15.00;50.30;;;;;;4975978;28;20071;-56
2021/04/27 06:31:42;;;;;;;1.98;0.73;;;15.10;50.40;;;;;;4976005;28;20027;-55
2021/04/27 06:34:08;;;;;;;1.70;1.00;;;14.90;50.30;;;;;;4958643;28;20113;-56
2021/04/27 06:36:35;;;;;;;8.23;1.40;;;15.00;50.30;;;;;;4975801;28;20053;-55
2021/04/27 06:39:03;;;;;;;1.08;0.75;;;14.80;50.50;;;;;;4975952;28;20019;-56
2021/04/27 06:41:31;;;;;;;1.73;0.82;;;14.90;50.40;;;;;;4975813;28;20062;-55
2021/04/27 06:43:57;;;;;;;1.17;0.93;;;15.30;50.50;;;;;;4975841;28;20098;-56
2021/04/27 06:46:23;;;;;;;1.50;1.08;;;15.00;74.80;;;;;;4975401;28;20474;-56
2021/04/27 06:48:48;;;;;;;2.50;0.95;;;14.70;74.90;;;;;;4958415;28;20026;-55
2021/04/27 06:51:17;;;;;;;1.17;0.77;;;14.90;50.00;;;;;;4958331;28;20027;-55
2021/04/27 06:53:43;;;;;;;1.52;0.98;;;15.00;50.50;;;;;;4975943;28;20478;-55
2021/04/27 06:56:09;;;;;;;3.50;0.80;;;15.10;74.40;;;;;;4974967;28;20477;-56
2021/04/27 06:58:35;;;;;;;2.20;0.68;;;14.80;50.60;;;;;;4958129;28;20029;-56
2021/04/27 07:01:00;;;;;;;1.17;0.80;;;14.70;74.20;;;;;;4975758;28;20436;-56
2021/04/27 07:03:26;;;;;;;1.58;0.93;;;14.90;50.70;;;;;;4975567;28;20123;-56
2021/04/27 07:05:52;;;;;;;3.85;0.90;;;14.90;51.10;;;;;;4975120;28;20041;-54
2021/04/27 07:08:17;;;;;;;2.50;1.30;;;15.10;75.70;;;;;;4957294;28;20046;-56
2021/04/27 07:10:43;;;;;;;2.15;0.90;;;14.90;73.90;;;;;;4975437;28;20066;-56
2021/04/27 07:13:09;;;;;;;1.67;0.95;;;14.90;50.70;;;;;;4957875;28;20073;-57
2021/04/27 07:15:34;;;;;;;2.85;1.40;;;14.70;74.10;;;;;;4974973;28;20027;-57
2021/04/27 07:18:00;;;;;;;2.75;0.88;;;14.90;74.70;;;;;;4975146;28;20106;-56
2021/04/27 07:20:26;;;;;;;3.25;1.00;;;15.00;74.60;;;;;;4975433;28;20407;-56
2021/04/27 07:22:51;;;;;;;4.22;1.05;;;14.90;51.40;;;;;;4975112;28;20045;-56
2021/04/27 07:25:17;;;;;;;6.97;1.10;;;15.00;74.20;;;;;;4974919;28;20089;-55
2021/04/27 07:27:44;;;;;;;2.95;0.88;;;14.90;51.00;;;;;;4975209;28;20537;-55
2021/04/27 07:30:11;;;;;;;3.25;1.20;;;15.00;51.40;;;;;;4975234;28;20034;-56
2021/04/27 07:32:37;;;;;;;4.50;0.95;;;15.00;51.30;;;;;;4974965;28;20532;-56
2021/04/27 07:35:05;;;;;;;3.28;0.82;;;15.00;51.80;;;;;;4974742;28;20027;-55
2021/04/27 07:37:30;;;;;;;6.25;0.90;;;15.00;51.50;;;;;;4974573;28;20079;-56
2021/04/27 07:39:56;;;;;;;3.13;0.68;;;15.00;51.40;;;;;;4974964;28;20023;-55
2021/04/27 07:42:22;;;;;;;5.97;1.08;;;14.90;74.50;;;;;;4974908;28;20374;-55
2021/04/27 07:44:48;;;;;;;4.78;0.88;;;15.00;51.70;;;;;;4956973;28;20472;-56
2021/04/27 07:47:13;;;;;;;2.83;0.80;;;15.00;51.60;;;;;;4974630;28;20039;-56
2021/04/27 07:49:39;;;;;;;5.97;1.25;;;15.40;52.10;;;;;;4974385;28;20019;-55
2021/04/27 07:52:04;;;;;;;3.40;0.80;;;15.00;75.10;;;;;;4974305;28;20034;-56
2021/04/27 07:54:31;;;;;;;4.85;1.23;;;15.10;52.20;;;;;;4974371;28;20058;-55
2021/04/27 07:56:56;;;;;;;5.40;1.10;;;15.10;75.40;;;;;;4974429;28;20027;-56
2021/04/27 07:59:22;;;;;;;3.70;1.08;;;15.00;52.40;;;;;;4974314;28;20033;-56
2021/04/27 08:01:48;;;;;;;3.50;0.93;;;15.10;52.50;;;;;;4974051;28;20044;-56
2021/04/27 08:04:15;;;;;;;3.20;0.80;;;15.10;75.40;;;;;;4974181;28;20039;-56
2021/04/27 08:06:41;;;;;;;5.82;1.30;;;15.10;52.30;;;;;;4974136;28;20122;-56
2021/04/27 08:09:08;;;;;;;2.88;1.10;;;14.80;75.60;;;;;;4974219;28;20038;-55
2021/04/27 08:11:34;;;;;;;2.22;1.00;;;15.10;52.20;;;;;;4974138;28;20023;-56
2021/04/27 08:14:00;;;;;;;2.72;0.80;;;15.10;52.10;;;;;;4956873;28;20446;-55
2021/04/27 08:16:26;;;;;;;2.88;1.00;;;15.40;52.10;;;;;;4956743;28;20410;-55
2021/04/27 08:18:52;;;;;;;4.35;1.17;;;15.40;52.00;;;;;;4973973;28;20033;-55
2021/04/27 08:21:19;;;;;;;8.00;1.23;;;14.70;51.60;;;;;;4974377;28;20030;-55
2021/04/27 08:23:45;;;;;;;3.10;1.08;;;15.20;75.30;;;;;;4974236;28;20067;-55
2021/04/27 08:26:13;;;;;;;6.70;1.20;;;15.20;51.90;;;;;;4973792;28;20053;-56
2021/04/27 08:28:39;;;;;;;4.13;1.15;;;15.10;74.80;;;;;;4973867;28;20023;-56
2021/04/27 08:31:05;;;;;;;5.45;1.13;;;15.20;51.70;;;;;;4973839;28;20023;-56
2021/04/27 08:33:31;;;;;;;2.03;1.30;;;15.20;51.60;;;;;;4973938;28;20065;-55
2021/04/27 08:35:57;;;;;;;4.57;0.90;;;15.30;74.70;;;;;;4973724;28;20109;-57
2021/04/27 08:38:23;;;;;;;1.75;0.90;;;15.20;51.40;;;;;;4956730;28;20425;-56
2021/04/27 08:40:50;;;;;;;3.20;1.08;;;15.30;51.30;;;;;;4973908;28;20023;-55
2021/04/27 08:43:16;;;;;;;5.50;0.95;;;;;;;;;;4973748;28;20023;-57
2021/04/27 08:45:43;;;;;;;1.58;0.70;;;15.40;50.50;;;;;;4973413;28;20034;-56
2021/04/27 08:48:10;;;;;;;3.63;1.25;;;15.40;51.00;;;;;;4956391;28;20089;-55
2021/04/27 08:50:37;;;;;;;1.42;0.65;;;15.50;51.00;;;;;;4973792;28;20033;-56
2021/04/27 08:53:05;;;;;;;1.40;0.50;;;15.50;50.90;;;;;;4973718;28;20389;-57
2021/04/27 08:55:31;;;;;;;4.05;0.65;;;15.80;74.20;;;;;;4973100;28;20054;-56
2021/04/27 08:57:57;;;;;;;2.80;0.80;;;15.60;50.60;;;;;;4973748;28;20058;-57
2021/04/27 09:00:24;;;;;;;1.73;0.70;;;15.70;50.50;;;;;;4973634;28;20022;-56
2021/04/27 09:02:55;;;;;;;2.08;0.80;;;15.80;50.40;;;;;;4973530;28;20023;-55
2021/04/27 09:05:23;;;;;;;4.82;0.77;;;15.80;50.30;;;;;;4973137;28;20574;-56
2021/04/27 09:07:50;;;;;;;2.63;0.93;;;15.90;50.20;;;;;;4973569;28;20146;-56
2021/04/27 09:10:18;;;;;;;3.50;0.80;;;15.90;50.10;;;;;;4973811;28;20106;-57
2021/04/27 09:12:49;;;;;;;4.38;0.88;;;16.00;50.10;;;;;;4956139;28;20037;-56
2021/04/27 09:15:35;;;;;;;3.28;0.90;;;16.00;50.00;;;;;;4973232;28;20394;-56
2021/04/27 09:18:21;;;;;;;4.05;1.10;;;16.10;49.90;;;;;;4973785;28;20030;-56
2021/04/27 09:21:06;;;;;;;6.15;0.80;;;16.20;49.90;;;;;;4973453;28;20043;-56
2021/04/27 09:23:34;;;;;;;11.20;1.50;;;16.20;49.80;;;;;;4973409;28;20118;-56
2021/04/27 09:26:12;;;;;;;2.65;0.80;;;16.20;49.70;;;;;;4973230;28;20406;-56
2021/04/27 09:28:41;;;;;;;7.10;1.05;;;16.40;49.80;;;;;;4955895;28;20022;-57
2021/04/27 09:31:30;;;;;;;2.45;0.77;;;16.40;49.70;;;;;;4975218;28;20390;-57
2021/04/27 09:34:19;;;;;;;1.75;0.85;;;16.40;49.60;;;;;;4976740;28;20097;-56
2021/04/27 09:36:45;;;;;;;7.90;0.90;;;16.50;49.60;;;;;;4976855;28;20034;-56
2021/04/27 09:39:12;;;;;;;3.20;0.75;;;16.50;49.60;;;;;;4977291;28;20363;-57
2021/04/27 09:41:37;;;;;;;3.22;1.08;;;16.60;49.50;;;;;;4977226;28;20428;-55
2021/04/27 09:44:03;;;;;;;5.15;1.02;;;16.60;49.50;;;;;;4976788;28;20027;-56
2021/04/27 09:46:29;;;;;;;4.72;1.70;;;16.70;49.40;;;;;;4976699;28;20114;-56
2021/04/27 09:48:58;;;;;;;2.05;0.80;;;16.70;49.40;;;;;;4959189;28;20027;-56
2021/04/27 09:51:29;;;;;;;3.53;0.60;;;16.70;49.20;;;;;;4976811;28;20117;-56
2021/04/27 09:54:00;;;;;;;3.55;0.90;;;16.60;49.10;;;;;;4976999;28;20033;-57
2021/04/27 09:56:41;;;;;;;4.03;0.60;;;16.80;49.10;;;;;;4976903;28;20026;-57
2021/04/27 09:59:13;;;;;;;5.80;1.05;;;16.90;49.00;;;;;;4959291;28;20474;-56
2021/04/27 10:01:40;;;;;;;1.92;0.80;;;16.90;48.80;;;;;;4976790;28;20070;-56
2021/04/27 10:04:06;;;;;;;3.63;1.02;;;17.00;48.80;;;;;;4959019;28;20094;-56
2021/04/27 10:06:34;;;;;;;3.17;0.60;;;17.00;48.70;;;;;;4976359;28;20042;-56
2021/04/27 10:09:00;;;;;;;4.45;1.15;;;16.90;48.60;;;;;;4976389;28;20023;-56
2021/04/27 10:11:27;;;;;;;4.68;0.88;;;17.10;48.70;;;;;;4976382;28;20098;-56
2021/04/27 10:13:54;;;;;;;3.35;0.60;;;17.10;48.60;;;;;;4976305;28;20027;-57
2021/04/27 10:16:20;;;;;;;2.45;0.98;;;17.20;48.50;;;;;;4976196;28;20030;-56
2021/04/27 10:18:47;;;;;;;2.58;0.82;;;17.20;48.40;;;;;;4976257;28;20410;-56
2021/04/27 10:21:13;;;;;;;0.93;0.50;;;17.20;48.40;;;;;;4976000;28;20058;-56
2021/04/27 10:23:46;;;;;;;2.38;0.60;;;17.30;48.40;;;;;;4976481;28;20117;-57
2021/04/27 10:26:12;;;;;;;1.90;0.65;;;17.30;48.30;;;;;;4974631;28;20039;-55
2021/04/27 10:29:02;;;;;;;1.42;0.47;;;17.40;48.20;;;;;;4975852;28;20090;-56
2021/04/27 10:31:30;;;;;;;1.60;0.60;;;17.40;48.10;;;;;;4976374;28;20069;-57
2021/04/27 10:34:01;;;;;;;1.13;0.60;;;17.50;48.10;;;;;;4976058;28;20037;-57
2021/04/27 10:36:28;;;;;;;2.72;0.75;;;17.50;48.00;;;;;;4976197;28;20104;-56
2021/04/27 10:39:03;;;;;;;1.42;0.57;;;17.50;48.00;;;;;;4958414;28;20019;-57
2021/04/27 10:41:44;;;;;;;2.17;0.47;;;17.50;47.80;;;;;;4976054;28;20070;-55
2021/04/27 10:44:09;;;;;;;;;;;17.50;47.70;;;;;;4976086;28;20051;-56
2021/04/27 10:46:35;;;;;;;0.98;0.57;;;17.60;47.80;;;;;;4975740;28;19968;-57
2021/04/27 10:49:34;;;;;;;2.28;0.60;;;17.60;47.70;;;;;;4975723;28;20054;-57
2021/04/27 10:52:02;;;;;;;2.53;0.55;;;17.60;47.60;;;;;;4964588;28;20086;-56
2021/04/27 10:54:28;;;;;;;4.10;0.70;;;17.70;47.60;;;;;;4975693;28;20114;-56
2021/04/27 10:57:00;;;;;;;1.60;0.60;;;17.70;47.60;;;;;;4975660;28;20098;-57
2021/04/27 10:59:47;;;;;;;1.95;0.43;;;17.70;47.50;;;;;;4975625;28;20027;-56
2021/04/27 11:02:19;;;;;;;2.20;0.57;;;17.80;47.50;;;;;;4961004;28;20110;-57
2021/04/27 11:04:46;;;;;;;0.80;0.60;;;17.80;47.50;;;;;;4957994;28;20489;-57
2021/04/27 11:07:31;;;;;;;2.90;0.85;;;17.90;68.80;;;;;;4975549;28;20054;-56
2021/04/27 11:10:00;;;;;;;2.55;0.98;;;17.80;47.40;;;;;;4975488;28;20097;-56
2021/04/27 11:12:42;;;;;;;4.95;0.75;;;17.90;47.40;;;;;;4975726;28;20390;-56
2021/04/27 11:15:19;;;;;;;2.05;0.68;;;17.90;47.30;;;;;;4975293;28;20038;-57
2021/04/27 11:17:59;;;;;;;1.65;0.40;;;18.10;47.40;;;;;;4975249;28;20054;-56
2021/04/27 11:20:45;;;;;;;;;;;17.90;47.30;;;;;;4975668;28;20033;-56
2021/04/27 11:23:51;;;;;;;3.22;0.80;;;17.90;47.10;;;;;;4975143;28;19906;-57
2021/04/27 11:26:28;;;;;;;3.45;0.90;;;18.00;47.10;;;;;;4975189;28;20394;-57
2021/04/27 11:28:57;;;;;;;3.55;0.73;;;17.90;47.10;;;;;;4975210;28;20027;-55
2021/04/27 11:31:22;;;;;;;1.52;0.90;;;17.60;45.80;;;;;;4975130;28;20106;-52
2021/04/27 11:34:03;;;;;;;2.83;0.90;;;17.90;45.40;;;;;;4975017;28;20101;-54
2021/04/27 11:36:37;;;;;;;2.83;0.65;;;18.20;45.40;;;;;;4975181;28;20073;-56
2021/04/27 11:39:10;;;;;;;4.22;0.70;;;17.70;45.20;;;;;;4974985;28;20027;-56
2021/04/27 11:41:43;;;;;;;6.10;1.23;;;17.80;46.10;;;;;;4974855;28;20062;-55
2021/04/27 11:44:09;;;;;;;3.83;0.90;;;17.60;46.70;;;;;;4957551;28;20037;-57
2021/04/27 11:47:19;;;;;;;2.55;0.80;;;17.90;46.80;;;;;;4974751;28;20460;-57
2021/04/27 11:49:59;;;;;;;3.10;0.88;;;18.00;46.90;;;;;;4975029;28;20019;-52
2021/04/27 11:52:42;;;;;;;4.18;0.60;;;18.00;46.90;;;;;;4975042;28;20069;-56
2021/04/27 11:55:15;;;;;;;3.30;1.13;;;18.10;47.00;;;;;;4974313;28;20041;-57
2021/04/27 11:57:45;;;;;;;1.73;0.50;;;18.10;47.00;;;;;;4974775;28;20051;-56
2021/04/27 12:00:12;;;;;;;2.53;0.85;;;18.10;47.10;;;;;;4974463;28;20027;-56
2021/04/27 12:02:38;;;;;;;2.00;0.95;;;18.20;47.10;;;;;;4974306;28;20502;-56
2021/04/27 12:05:04;;;;;;;3.92;0.70;;;18.20;47.20;;;;;;4974014;28;20057;-56
2021/04/27 12:07:30;;;;;;;2.47;0.60;;;18.00;68.30;;;;;;4974304;28;20093;-57
2021/04/27 12:09:57;;;;;;;6.25;1.05;;;18.20;47.30;;;;;;4974311;28;20019;-56
2021/04/27 12:12:23;;;;;;;2.08;0.65;;;18.30;47.40;;;;;;4974276;28;20086;-55
2021/04/27 12:14:55;;;;;;;1.42;0.68;;;18.30;47.50;;;;;;4974299;28;20052;-56
2021/04/27 12:17:28;;;;;;;2.45;0.63;;;18.30;68.70;;;;;;4974199;28;20562;-56
2021/04/27 12:20:21;;;;;;;2.70;0.88;;;18.30;47.60;;;;;;4974176;28;20101;-55
2021/04/27 12:22:51;;;;;;;4.25;0.68;;;18.30;47.60;;;;;;4954181;28;20038;-55
2021/04/27 12:25:21;;;;;;;2.55;0.47;;;18.30;47.70;;;;;;4974062;28;20490;-55
2021/04/27 12:27:49;;;;;;;2.17;1.08;;;18.30;47.80;;;;;;4974122;28;20031;-55
2021/04/27 12:30:20;;;;;;;2.25;0.45;;;18.40;47.80;;;;;;4973926;28;20470;-56
2021/04/27 12:32:51;;;;;;;1.67;0.40;;;18.40;47.80;;;;;;4956607;28;20023;-56
2021/04/27 12:35:17;;;;;;;1.25;0.60;;;18.40;47.70;;;;;;4973995;28;20459;-55
2021/04/27 12:37:43;;;;;;;1.52;0.60;;;18.40;48.00;;;;;;4973937;28;20022;-56
2021/04/27 12:40:14;;;;;;;1.35;0.60;;;18.40;48.10;;;;;;4974161;28;20022;-55
2021/04/27 12:42:48;;;;;;;2.42;0.65;;;18.20;47.90;;;;;;4973887;28;20023;-56
2021/04/27 12:45:14;;;;;;;7.93;0.98;;;18.40;69.60;;;;;;4956397;28;20027;-55
2021/04/27 12:47:40;;;;;;;5.35;1.05;;;18.30;69.20;;;;;;4973661;28;20030;-53
2021/04/27 12:50:13;;;;;;;2.55;0.77;;;18.40;48.00;;;;;;4973801;28;20098;-55
2021/04/27 12:52:40;;;;;;;1.10;0.60;;;18.40;48.00;;;;;;4973826;28;20393;-56
2021/04/27 12:55:11;;;;;;;1.10;0.57;;;18.40;48.10;;;;;;4974014;28;20509;-55